createdAt,value
2024-03-12T00:01:49.583Z,100545.17
2024-03-12T00:04:18.016Z,100540.84
2024-03-12T00:06:46.207Z,100532.91
2024-03-12T00:09:13.948Z,100533.60
2024-03-12T00:11:43.765Z,100528.75
2024-03-12T00:14:11.406Z,100526.16
2024-03-12T00:16:41.900Z,100526.70
2024-03-12T00:19:11.024Z,100524.42
2024-03-12T00:21:38.693Z,100523.94
2024-03-12T00:24:06.695Z,100525.81
2024-03-12T00:26:34.422Z,100524.77
2024-03-12T00:29:02.189Z,100527.91
2024-03-12T00:31:29.596Z,100527.69
2024-03-12T00:34:01.739Z,100521.98
2024-03-12T00:36:30.184Z,100518.99
2024-03-12T00:38:58.985Z,100520.60
2024-03-12T00:41:26.520Z,100518.89
2024-03-12T00:43:55.404Z,100521.16
2024-03-12T00:46:23.735Z,100519.49
2024-03-12T00:48:51.473Z,100517.94
2024-03-12T00:51:19.732Z,100512.80
2024-03-12T00:53:47.405Z,100512.38
2024-03-12T00:56:16.683Z,100509.50
2024-03-12T00:58:44.393Z,100509.17
2024-03-12T01:01:16.618Z,100504.70
2024-03-12T01:03:44.494Z,100502.46
2024-03-12T01:06:13.194Z,100499.17
2024-03-12T01:08:44.093Z,100494.38
2024-03-12T01:11:13.658Z,100494.46
2024-03-12T01:13:41.623Z,100491.83
2024-03-12T01:16:09.189Z,100490.02
2024-03-12T01:18:37.221Z,100491.02
2024-03-12T01:21:04.846Z,100493.05
2024-03-12T01:23:32.455Z,100486.61
2024-03-12T01:25:59.978Z,100490.38
2024-03-12T01:28:27.381Z,100488.73
2024-03-12T01:30:54.964Z,100490.80
2024-03-12T01:33:22.695Z,100485.10
2024-03-12T01:35:50.498Z,100483.70
2024-03-12T01:38:17.908Z,100482.73
2024-03-12T01:40:45.525Z,100478.05
2024-03-12T01:43:14.276Z,100478.58
2024-03-12T01:45:43.810Z,100476.30
2024-03-12T01:48:12.852Z,100478.55
2024-03-12T01:50:41.384Z,100475.10
2024-03-12T01:53:09.884Z,100478.08
2024-03-12T01:55:45.192Z,100477.10
2024-03-12T01:58:19.006Z,100475.20
2024-03-12T02:00:47.593Z,100474.27
2024-03-12T02:03:17.279Z,100470.52
2024-03-12T02:05:47.858Z,100471.84
2024-03-12T02:08:15.438Z,100471.21
2024-03-12T02:10:43.082Z,100468.33
2024-03-12T02:13:10.663Z,100468.33
2024-03-12T02:15:38.516Z,100468.67
2024-03-12T02:18:09.963Z,100466.76
2024-03-12T02:20:39.670Z,100464.34
2024-03-12T02:23:07.365Z,100459.05
2024-03-12T02:25:34.866Z,100459.06
2024-03-12T02:28:04.404Z,100459.32
2024-03-12T02:30:32.358Z,100459.80
2024-03-12T02:33:00.037Z,100457.02
2024-03-12T02:35:27.825Z,100455.40
2024-03-12T02:37:55.316Z,100459.35
2024-03-12T02:40:23.805Z,100453.92
2024-03-12T02:42:51.596Z,100450.38
2024-03-12T02:45:22.387Z,100454.77
2024-03-12T02:47:50.655Z,100451.11
2024-03-12T02:50:19.648Z,100448.44
2024-03-12T02:52:47.377Z,100444.58
2024-03-12T02:55:15.541Z,100445.15
2024-03-12T02:57:43.451Z,100446.73
2024-03-12T03:00:16.108Z,100441.60
2024-03-12T03:02:45.188Z,100438.62
2024-03-12T03:05:14.580Z,100440.83
2024-03-12T03:07:42.647Z,100442.08
2024-03-12T03:10:14.466Z,100440.42
2024-03-12T03:12:43.350Z,100439.31
2024-03-12T03:15:13.831Z,100440.19
2024-03-12T03:17:47.068Z,100434.89
2024-03-12T03:20:17.774Z,100438.98
2024-03-12T03:22:48.584Z,100438.73
2024-03-12T03:25:16.656Z,100441.80
2024-03-12T03:27:44.573Z,100434.92
2024-03-12T03:30:14.573Z,100435.45
2024-03-12T03:32:42.254Z,100429.77
2024-03-12T03:35:10.009Z,100426.50
2024-03-12T03:37:37.635Z,100428.27
2024-03-12T03:40:06.261Z,100424.23
2024-03-12T03:42:33.907Z,100428.54
2024-03-12T03:45:01.541Z,100424.46
2024-03-12T03:47:35.407Z,100425.92
2024-03-12T03:50:04.345Z,100424.42
2024-03-12T03:52:31.962Z,100423.02
2024-03-12T03:54:59.404Z,100423.01
2024-03-12T03:57:27.376Z,100421.52
2024-03-12T03:59:54.990Z,100417.78
2024-03-12T04:02:22.726Z,100416.65
2024-03-12T04:04:50.875Z,100416.46
2024-03-12T04:07:21.140Z,100414.17
2024-03-12T04:09:48.832Z,100418.69
2024-03-12T04:12:16.531Z,100416.33
2024-03-12T04:14:44.017Z,100415.41
2024-03-12T04:17:11.467Z,100414.34
2024-03-12T04:19:39.003Z,100414.20
2024-03-12T04:22:07.399Z,100412.23
2024-03-12T04:24:35.330Z,100413.66
2024-03-12T04:27:02.958Z,100411.14
2024-03-12T04:29:30.464Z,100412.46
2024-03-12T04:31:57.960Z,100408.58
2024-03-12T04:34:25.642Z,100406.70
2024-03-12T04:36:53.114Z,100407.55
2024-03-12T04:39:33.207Z,100404.21
2024-03-12T04:42:03.555Z,100404.17
2024-03-12T04:44:31.144Z,100404.77
2024-03-12T04:46:58.792Z,100405.23
2024-03-12T04:49:27.086Z,100401.68
2024-03-12T04:51:54.818Z,100399.52
2024-03-12T04:54:22.470Z,100403.42
2024-03-12T04:56:52.931Z,100399.81
2024-03-12T04:59:20.582Z,100402.95
2024-03-12T05:01:50.414Z,100406.52
2024-03-12T05:04:22.604Z,100406.80
2024-03-12T05:06:51.802Z,100411.41
2024-03-12T05:09:19.744Z,100409.21
2024-03-12T05:11:47.367Z,100410.07
2024-03-12T05:14:15.020Z,100410.59
2024-03-12T05:16:43.150Z,100411.30
2024-03-12T05:19:12.945Z,100412.16
2024-03-12T05:21:40.705Z,100415.48
2024-03-12T05:24:08.391Z,100418.95
2024-03-12T05:26:45.248Z,100419.62
2024-03-12T05:29:13.463Z,100421.66
2024-03-12T05:31:41.613Z,100422.30
2024-03-12T05:34:20.247Z,100421.89
2024-03-12T05:36:53.321Z,100423.63
2024-03-12T05:39:50.435Z,100423.20
2024-03-12T05:42:37.466Z,100429.73
2024-03-12T05:45:24.114Z,100435.45
2024-03-12T05:48:10.595Z,100430.38
2024-03-12T05:50:42.406Z,100431.45
2024-03-12T05:53:10.086Z,100424.95
2024-03-12T05:55:37.628Z,100433.47
2024-03-12T05:58:06.205Z,100428.87
2024-03-12T06:00:34.011Z,100429.15
2024-03-12T06:03:01.548Z,100429.00
2024-03-12T06:05:29.112Z,100426.38
2024-03-12T06:07:56.676Z,100422.64
2024-03-12T06:10:24.266Z,100419.33
2024-03-12T06:12:52.244Z,100419.65
2024-03-12T06:15:20.466Z,100427.33
2024-03-12T06:17:47.932Z,100421.95
2024-03-12T06:20:15.630Z,100427.31
2024-03-12T06:22:46.045Z,100421.24
2024-03-12T06:25:14.011Z,100421.70
2024-03-12T06:27:42.925Z,100422.80
2024-03-12T06:30:12.429Z,100420.18
2024-03-12T06:32:40.034Z,100417.21
2024-03-12T06:35:09.135Z,100411.81
2024-03-12T06:37:36.636Z,100414.28
2024-03-12T06:40:06.059Z,100410.52
2024-03-12T06:42:34.040Z,100410.69
2024-03-12T06:45:03.550Z,100412.04
2024-03-12T06:47:38.227Z,100410.02
2024-03-12T06:50:10.084Z,100412.94
2024-03-12T06:52:37.636Z,100410.33
2024-03-12T06:55:06.391Z,100414.72
2024-03-12T06:57:35.639Z,100414.54
2024-03-12T07:00:10.890Z,100418.77
2024-03-12T07:02:39.719Z,100416.92
2024-03-12T07:05:11.290Z,100422.67
2024-03-12T07:07:45.316Z,100421.32
2024-03-12T07:10:13.109Z,100417.76
2024-03-12T07:12:40.811Z,100422.35
2024-03-12T07:15:08.915Z,100420.93
2024-03-12T07:17:36.453Z,100423.23
2024-03-12T07:20:11.504Z,100425.53
2024-03-12T07:22:46.398Z,100427.69
2024-03-12T07:25:14.887Z,100421.15
2024-03-12T07:27:42.914Z,100424.91
2024-03-12T07:30:11.822Z,100425.05
2024-03-12T07:32:39.446Z,100425.20
2024-03-12T07:35:07.821Z,100422.23
2024-03-12T07:37:40.677Z,100418.70
2024-03-12T07:40:13.272Z,100422.08
2024-03-12T07:42:42.965Z,100416.88
2024-03-12T07:45:11.698Z,100419.23
2024-03-12T07:47:42.238Z,100420.96
2024-03-12T07:50:12.501Z,100421.48
2024-03-12T07:52:40.546Z,100425.39
2024-03-12T07:55:11.271Z,100421.45
2024-03-12T07:57:39.261Z,100423.54
2024-03-12T08:00:16.387Z,100423.41
2024-03-12T08:02:44.317Z,100418.61
2024-03-12T08:05:12.289Z,100417.33
2024-03-12T08:08:52.887Z,100420.52
2024-03-12T08:11:21.044Z,100424.75
2024-03-12T08:13:49.574Z,100429.10
2024-03-12T08:16:17.208Z,100428.34
2024-03-12T08:18:44.855Z,100428.35
2024-03-12T08:21:13.099Z,100425.66
2024-03-12T08:23:40.741Z,100423.49
2024-03-12T08:27:20.677Z,100427.38
2024-03-12T08:29:48.342Z,100421.20
2024-03-12T08:32:15.992Z,100428.31
2024-03-12T08:34:43.950Z,100426.51
2024-03-12T08:37:13.473Z,100420.73
2024-03-12T08:39:41.887Z,100420.05
2024-03-12T08:42:11.291Z,100422.98
2024-03-12T08:44:39.125Z,100420.02
2024-03-12T08:47:07.097Z,100427.40
2024-03-12T08:49:34.879Z,100427.95
2024-03-12T08:52:04.886Z,100433.56
2024-03-12T08:54:32.939Z,100433.70
2024-03-12T08:57:02.302Z,100428.04
2024-03-12T08:59:30.728Z,100432.28
2024-03-12T09:02:02.169Z,100427.87
2024-03-12T09:04:31.747Z,100429.65
2024-03-12T09:07:00.323Z,100428.44
2024-03-12T09:09:28.378Z,100428.21
2024-03-12T09:11:57.395Z,100426.98
2024-03-12T09:14:25.966Z,100428.52
2024-03-12T09:16:53.637Z,100426.85
2024-03-12T09:19:26.159Z,100426.60
2024-03-12T09:21:54.555Z,100422.88
2024-03-12T09:24:24.099Z,100421.65
2024-03-12T09:26:53.193Z,100421.42
2024-03-12T09:29:21.980Z,100419.26
2024-03-12T09:31:49.414Z,100417.75
2024-03-12T09:34:18.159Z,100416.50
2024-03-12T09:36:46.156Z,100418.21
2024-03-12T09:39:13.805Z,100414.95
2024-03-12T09:41:43.596Z,100416.90
2024-03-12T09:44:12.527Z,100417.83
2024-03-12T09:46:40.779Z,100413.89
2024-03-12T09:49:09.224Z,100415.30
2024-03-12T09:51:37.956Z,100412.44
2024-03-12T09:54:05.595Z,100414.25
2024-03-12T09:56:35.096Z,100410.86
2024-03-12T09:59:02.612Z,100412.14
2024-03-12T10:01:30.231Z,100417.92
2024-03-12T10:03:58.519Z,100411.61
2024-03-12T10:06:27.111Z,100410.64
2024-03-12T10:09:01.293Z,100412.10
2024-03-12T10:11:28.886Z,100410.85
2024-03-12T10:14:07.338Z,100408.48
2024-03-12T10:16:35.921Z,100409.58
2024-03-12T10:19:16.345Z,100404.19
2024-03-12T10:21:46.453Z,100403.58
2024-03-12T10:24:15.507Z,100411.05
2024-03-12T10:26:43.622Z,100404.06
2024-03-12T10:29:19.533Z,100404.21
2024-03-12T10:31:48.085Z,100407.30
2024-03-12T10:34:21.573Z,100405.34
2024-03-12T10:36:51.463Z,100402.11
2024-03-12T10:39:30.123Z,100404.30
2024-03-12T10:42:00.663Z,100403.80
2024-03-12T10:44:30.155Z,100403.15
2024-03-12T10:47:00.650Z,100402.84
2024-03-12T10:49:29.266Z,100410.08
2024-03-12T10:51:56.857Z,100405.91
2024-03-12T10:54:25.325Z,100403.69
2024-03-12T10:56:53.026Z,100410.17
2024-03-12T10:59:20.553Z,100408.38
2024-03-12T11:01:49.607Z,100400.87
2024-03-12T11:04:17.407Z,100403.75
2024-03-12T11:06:45.142Z,100395.61
2024-03-12T11:09:13.426Z,100395.59
2024-03-12T11:11:41.594Z,100400.44
2024-03-12T11:14:09.283Z,100400.53
2024-03-12T11:16:37.856Z,100397.06
2024-03-12T11:19:24.731Z,100398.98
2024-03-12T11:21:53.335Z,100391.83
2024-03-12T11:24:32.022Z,100395.18
2024-03-12T11:27:05.084Z,100392.30
2024-03-12T11:30:05.563Z,100400.45
2024-03-12T11:32:45.705Z,100398.56
2024-03-12T11:35:21.417Z,100397.59
2024-03-12T11:38:03.901Z,100395.00
2024-03-12T11:40:41.074Z,100392.11
2024-03-12T11:43:18.180Z,100404.81
2024-03-12T11:45:48.843Z,100400.89
2024-03-12T11:48:22.266Z,100399.39
2024-03-12T11:50:56.085Z,100399.93
2024-03-12T11:53:24.098Z,100394.79
2024-03-12T11:55:59.403Z,100397.39
2024-03-12T11:58:36.039Z,100393.11
2024-03-12T12:01:04.064Z,100397.70
2024-03-12T12:03:31.931Z,100391.22
2024-03-12T12:06:00.312Z,100396.56
2024-03-12T12:08:30.328Z,100392.34
2024-03-12T12:11:04.036Z,100387.66
2024-03-12T12:13:32.008Z,100385.64
2024-03-12T12:16:02.457Z,100389.56
2024-03-12T12:18:31.222Z,100383.81
2024-03-12T12:21:01.491Z,100382.46
2024-03-12T12:23:29.323Z,100384.75
2024-03-12T12:25:57.859Z,100386.77
2024-03-12T12:28:26.336Z,100382.89
2024-03-12T12:30:58.339Z,100385.93
2024-03-12T12:33:26.598Z,100384.56
2024-03-12T12:35:58.930Z,100384.51
2024-03-12T12:38:27.228Z,100388.26
2024-03-12T12:40:55.116Z,100386.64
2024-03-12T12:43:23.284Z,100389.36
2024-03-12T12:45:51.105Z,100382.29
2024-03-12T12:48:19.777Z,100387.04
2024-03-12T12:50:55.164Z,100383.45
2024-03-12T12:53:23.699Z,100383.28
2024-03-12T12:55:58.619Z,100376.49
2024-03-12T12:58:34.668Z,100373.49
2024-03-12T13:01:03.603Z,100374.48
2024-03-12T13:03:36.566Z,100376.55
2024-03-12T13:06:24.002Z,100373.89
2024-03-12T13:08:52.783Z,100373.27
2024-03-12T13:11:22.908Z,100373.52
2024-03-12T13:13:52.404Z,100372.02
2024-03-12T13:16:22.949Z,100369.29
2024-03-12T13:18:51.884Z,100365.31
2024-03-12T13:21:22.740Z,100367.63
2024-03-12T13:23:51.287Z,100367.05
2024-03-12T13:26:20.116Z,100365.52
2024-03-12T13:28:49.714Z,100366.81
2024-03-12T13:31:17.559Z,100373.78
2024-03-12T13:33:45.989Z,100365.58
2024-03-12T13:36:14.058Z,100367.54
2024-03-12T13:38:41.883Z,100361.65
2024-03-12T13:41:10.719Z,100358.66
2024-03-12T13:43:39.047Z,100359.40
2024-03-12T13:46:06.896Z,100358.19
2024-03-12T13:48:38.497Z,100352.15
2024-03-12T13:51:08.888Z,100353.94
2024-03-12T13:53:36.785Z,100350.54
2024-03-12T13:56:07.982Z,100352.81
2024-03-12T13:58:35.621Z,100349.03
2024-03-12T14:01:03.485Z,100350.28
2024-03-12T14:03:32.513Z,100349.81
2024-03-12T14:06:05.094Z,100348.61
2024-03-12T14:08:32.691Z,100343.83
2024-03-12T14:11:00.367Z,100343.63
2024-03-12T14:13:28.455Z,100339.27
2024-03-12T14:15:57.205Z,100335.52
2024-03-12T14:18:25.061Z,100334.52
2024-03-12T14:20:52.679Z,100329.94
2024-03-12T14:23:21.305Z,100328.54
2024-03-12T14:25:50.432Z,100328.64
2024-03-12T14:28:18.214Z,100321.72
2024-03-12T14:30:46.292Z,100321.02
2024-03-12T14:33:14.144Z,100325.32
2024-03-12T14:35:41.986Z,100322.95
2024-03-12T14:38:09.754Z,100325.20
2024-03-12T14:40:37.465Z,100320.92
2024-03-12T14:43:06.024Z,100319.45
2024-03-12T14:45:34.084Z,100317.85
2024-03-12T14:48:03.671Z,100315.78
2024-03-12T14:50:31.257Z,100312.31
2024-03-12T14:52:58.991Z,100314.45
2024-03-12T14:55:26.639Z,100318.83
2024-03-12T14:57:54.439Z,100326.27
2024-03-12T15:00:23.313Z,100322.45
2024-03-12T15:02:50.903Z,100319.05
2024-03-12T15:05:21.897Z,100325.81
2024-03-12T15:07:49.906Z,100326.19
2024-03-12T15:10:18.150Z,100328.52
2024-03-12T15:12:45.977Z,100323.82
2024-03-12T15:15:15.634Z,100322.48
2024-03-12T15:17:46.432Z,100325.34
2024-03-12T15:20:17.241Z,100326.95
2024-03-12T15:22:46.728Z,100328.52
2024-03-12T15:25:16.618Z,100326.92
2024-03-12T15:27:44.263Z,100330.89
2024-03-12T15:30:13.250Z,100326.77
2024-03-12T15:32:42.850Z,100324.80
2024-03-12T15:35:12.289Z,100329.77
2024-03-12T15:37:40.050Z,100326.20
2024-03-12T15:40:10.288Z,100327.77
2024-03-12T15:42:41.018Z,100325.45
2024-03-12T15:45:12.808Z,100323.52
2024-03-12T15:47:40.914Z,100327.69
2024-03-12T15:50:09.055Z,100325.88
2024-03-12T15:52:37.238Z,100325.85
2024-03-12T15:55:05.726Z,100322.27
2024-03-12T15:57:35.208Z,100317.30
2024-03-12T16:00:05.868Z,100312.78
2024-03-12T16:02:38.384Z,100308.00
2024-03-12T16:05:06.815Z,100304.14
2024-03-12T16:07:38.309Z,100304.06
2024-03-12T16:10:09.763Z,100304.11
2024-03-12T16:12:40.518Z,100300.88
2024-03-12T16:15:10.893Z,100302.60
2024-03-12T16:17:38.672Z,100301.35
2024-03-12T16:20:14.459Z,100298.79
2024-03-12T16:22:43.175Z,100302.24
2024-03-12T16:25:11.569Z,100299.95
2024-03-12T16:27:41.048Z,100299.57
2024-03-12T16:30:10.976Z,100293.33
2024-03-12T16:32:42.808Z,100291.11
2024-03-12T16:35:10.588Z,100291.05
2024-03-12T16:37:39.946Z,100289.88
2024-03-12T16:40:08.902Z,100292.14
2024-03-12T16:42:37.068Z,100293.05
2024-03-12T16:45:06.806Z,100289.39
2024-03-12T16:47:34.964Z,100287.52
2024-03-12T16:50:09.326Z,100284.02
2024-03-12T16:52:37.895Z,100284.17
2024-03-12T16:55:06.443Z,100286.89
2024-03-12T16:57:35.292Z,100277.96
2024-03-12T17:00:05.208Z,100285.97
2024-03-12T17:02:45.234Z,100285.38
2024-03-12T17:05:14.695Z,100286.85
2024-03-12T17:07:43.118Z,100284.16
2024-03-12T17:10:12.772Z,100280.86
2024-03-12T17:12:41.551Z,100280.35
2024-03-12T17:15:12.999Z,100284.54
2024-03-12T17:17:40.673Z,100277.73
2024-03-12T17:20:12.279Z,100269.16
2024-03-12T17:22:42.653Z,100268.66
2024-03-12T17:25:11.921Z,100268.83
2024-03-12T17:27:42.513Z,100262.11
2024-03-12T17:30:11.535Z,100260.52
2024-03-12T17:32:40.773Z,100256.23
2024-03-12T17:35:16.234Z,100261.82
2024-03-12T17:37:47.095Z,100254.05
2024-03-12T17:40:15.539Z,100263.17
2024-03-12T17:42:47.004Z,100254.74
2024-03-12T17:45:15.761Z,100252.55
2024-03-12T17:47:50.690Z,100251.70
2024-03-12T17:50:19.213Z,100252.11
2024-03-12T17:52:59.755Z,100241.70
2024-03-12T17:55:29.424Z,100236.90
2024-03-12T17:57:57.426Z,100235.20
2024-03-12T18:00:25.651Z,100235.58
2024-03-12T18:02:56.243Z,100233.71
2024-03-12T18:05:24.254Z,100231.39
2024-03-12T18:07:55.064Z,100228.17
2024-03-12T18:10:26.365Z,100228.36
2024-03-12T18:12:54.348Z,100227.91
2024-03-12T18:15:24.887Z,100220.82
2024-03-12T18:17:53.581Z,100222.05
2024-03-12T18:20:25.582Z,100214.77
2024-03-12T18:22:54.373Z,100211.21
2024-03-12T18:25:22.413Z,100212.31
2024-03-12T18:27:54.847Z,100213.64
2024-03-12T18:30:22.935Z,100213.38
2024-03-12T18:32:50.805Z,100210.58
2024-03-12T18:35:20.779Z,100211.91
2024-03-12T18:37:48.577Z,100215.44
2024-03-12T18:40:20.034Z,100210.77
2024-03-12T18:42:49.527Z,100210.29
2024-03-12T18:45:19.831Z,100211.47
2024-03-12T18:47:56.957Z,100210.08
2024-03-12T18:50:29.313Z,100206.77
2024-03-12T18:52:57.192Z,100207.04
2024-03-12T18:55:28.132Z,100207.95
2024-03-12T18:57:58.052Z,100210.05
2024-03-12T19:00:27.192Z,100208.26
2024-03-12T19:02:55.196Z,100202.04
2024-03-12T19:05:23.488Z,100205.60
2024-03-12T19:07:52.417Z,100194.77
2024-03-12T19:10:21.089Z,100194.48
2024-03-12T19:12:50.756Z,100193.11
2024-03-12T19:15:26.534Z,100193.04
2024-03-12T19:17:56.044Z,100188.10
2024-03-12T19:20:26.433Z,100191.98
2024-03-12T19:22:57.703Z,100191.20
2024-03-12T19:25:27.391Z,100190.28
2024-03-12T19:27:56.431Z,100183.41
2024-03-12T19:30:26.187Z,100179.10
2024-03-12T19:32:54.581Z,100178.80
2024-03-12T19:35:23.206Z,100177.91
2024-03-12T19:37:54.472Z,100179.54
2024-03-12T19:40:23.016Z,100168.23
2024-03-12T19:42:53.227Z,100169.88
2024-03-12T19:45:32.519Z,100163.25
2024-03-12T19:48:03.358Z,100159.22
2024-03-12T19:50:31.824Z,100152.45
2024-03-12T19:52:59.646Z,100152.11
2024-03-12T19:55:31.501Z,100152.44
2024-03-12T19:58:03.350Z,100150.58
2024-03-12T20:00:35.799Z,100148.51
2024-03-12T20:03:07.586Z,100144.00
2024-03-12T20:05:39.467Z,100153.17
2024-03-12T20:08:10.445Z,100149.73
2024-03-12T20:10:40.222Z,100147.56
2024-03-12T20:13:08.175Z,100144.45
2024-03-12T20:15:38.541Z,100145.15
2024-03-12T20:18:07.538Z,100149.96
2024-03-12T20:20:35.565Z,100149.14
2024-03-12T20:23:04.911Z,100146.13
2024-03-12T20:26:46.877Z,100148.11
2024-03-12T20:29:14.485Z,100146.64
2024-03-12T20:31:42.228Z,100148.02
2024-03-12T20:34:09.992Z,100150.29
2024-03-12T20:36:37.955Z,100152.04
2024-03-12T20:39:16.483Z,100144.83
2024-03-12T20:41:44.118Z,100157.41
2024-03-12T20:44:11.983Z,100158.72
2024-03-12T20:46:41.259Z,100151.19
2024-03-12T20:49:10.837Z,100146.54
2024-03-12T20:51:38.637Z,100151.48
2024-03-12T20:54:09.537Z,100156.80
2024-03-12T20:56:37.299Z,100159.40
2024-03-12T20:59:06.276Z,100161.91
2024-03-12T21:01:33.861Z,100156.82
2024-03-12T21:04:03.511Z,100159.00
2024-03-12T21:06:32.540Z,100157.90
2024-03-12T21:09:11.544Z,100158.13
2024-03-12T21:11:42.688Z,100141.77
2024-03-12T21:14:10.189Z,100142.02
2024-03-12T21:16:37.761Z,100143.86
2024-03-12T21:19:05.424Z,100135.30
2024-03-12T21:21:33.642Z,100134.83
2024-03-12T21:24:01.185Z,100136.54
2024-03-12T21:26:28.789Z,100127.65
2024-03-12T21:28:56.777Z,100121.73
2024-03-12T21:31:24.321Z,100114.56
2024-03-12T21:33:51.824Z,100112.13
2024-03-12T21:36:19.398Z,100109.97
2024-03-12T21:38:49.480Z,100109.41
2024-03-12T21:41:17.181Z,100110.87
2024-03-12T21:43:45.906Z,100102.58
2024-03-12T21:46:13.440Z,100112.17
2024-03-12T21:48:41.213Z,100109.34
2024-03-12T21:51:10.184Z,100110.48
2024-03-12T21:53:37.688Z,100110.73
2024-03-12T21:56:08.920Z,100111.81
2024-03-12T21:58:36.336Z,100108.49
2024-03-12T22:01:04.381Z,100107.73
2024-03-12T22:03:32.580Z,100102.89
2024-03-12T22:06:00.342Z,100098.90
2024-03-12T22:08:27.891Z,100096.33
2024-03-12T22:10:58.040Z,100101.52
2024-03-12T22:13:31.569Z,100099.29
2024-03-12T22:16:06.790Z,100098.44
2024-03-12T22:18:35.717Z,100101.27
2024-03-12T22:21:03.648Z,100104.59
2024-03-12T22:23:34.489Z,100095.94
2024-03-12T22:26:01.913Z,100095.96
2024-03-12T22:28:29.380Z,100097.23
2024-03-12T22:30:56.947Z,100096.92
2024-03-12T22:33:26.126Z,100097.30
2024-03-12T22:35:53.865Z,100089.86
2024-03-12T22:38:21.713Z,100088.50
2024-03-12T22:40:52.171Z,100088.03
2024-03-12T22:43:20.358Z,100088.23
2024-03-12T22:45:49.535Z,100084.27
2024-03-12T22:48:18.551Z,100087.73
2024-03-12T22:50:46.165Z,100088.74
2024-03-12T22:53:14.995Z,100089.07
2024-03-12T22:55:42.743Z,100090.92
2024-03-12T22:58:11.838Z,100094.20
2024-03-12T23:00:39.651Z,100097.30
2024-03-12T23:03:07.732Z,100100.92
2024-03-12T23:05:35.682Z,100096.80
2024-03-12T23:08:07.293Z,100094.50
2024-03-12T23:10:40.936Z,100092.52
2024-03-12T23:13:11.370Z,100086.91
2024-03-12T23:15:40.168Z,100081.45
2024-03-12T23:18:11.970Z,100078.74
2024-03-12T23:20:46.189Z,100077.95
2024-03-12T23:23:14.863Z,100070.39
2024-03-12T23:25:42.876Z,100071.46
2024-03-12T23:28:12.007Z,100067.67
2024-03-12T23:30:40.161Z,100066.31
2024-03-12T23:33:11.559Z,100068.32
2024-03-12T23:35:39.047Z,100063.99
2024-03-12T23:38:06.902Z,100064.94
2024-03-12T23:40:34.566Z,100063.39
2024-03-12T23:43:02.447Z,100064.02
2024-03-12T23:45:32.149Z,100070.33
2024-03-12T23:47:59.774Z,100071.79
2024-03-12T23:50:27.365Z,100068.95
2024-03-12T23:52:55.876Z,100074.55
2024-03-12T23:55:23.850Z,100074.81
2024-03-12T23:57:54.691Z,100077.05
